Time;durP1;ratioP1;P1;durP2;ratioP2;P2;SDS_P1;SDS_P2;PMS_P1;PMS_P2;Temp;Humidity;BMP_temperature;BMP_pressure;BME280_temperature;BME280_humidity;BME280_pressure;Samples;Min_cycle;Max_cycle;Signal;HPM_P1;HPM_P2
2021/11/11 00:00:38;;;;;;;36.27;22.87;;;6.10;99.90;;;;;;5013228;28;20461;-63
2021/11/11 00:03:05;;;;;;;38.27;24.03;;;6.00;99.90;;;;;;5007020;28;20215;-63
2021/11/11 00:05:33;;;;;;;38.57;23.60;;;6.00;99.90;;;;;;5013885;28;20221;-62
2021/11/11 00:08:01;;;;;;;37.73;22.87;;;6.00;99.90;;;;;;5031312;28;20238;-63
2021/11/11 00:10:29;;;;;;;39.77;22.63;;;6.00;99.90;;;;;;4999560;28;20697;-63
2021/11/11 00:12:56;;;;;;;35.80;22.77;;;6.00;99.90;;;;;;5000980;28;20208;-63
2021/11/11 00:15:23;;;;;;;35.60;22.47;;;6.10;99.90;;;;;;4993417;28;20322;-64
2021/11/11 00:17:51;;;;;;;38.37;23.60;;;6.10;99.90;;;;;;5004396;28;20218;-64
2021/11/11 00:20:22;;;;;;;32.67;21.27;;;6.00;99.90;;;;;;5007130;28;20212;-64
2021/11/11 00:22:50;;;;;;;37.97;22.43;;;6.00;99.90;;;;;;4993643;28;20211;-61
2021/11/11 00:25:20;;;;;;;39.80;24.03;;;6.00;99.90;;;;;;5006761;28;20203;-63
2021/11/11 00:27:48;;;;;;;34.53;22.97;;;6.00;99.90;;;;;;4996961;28;20207;-63
2021/11/11 00:30:16;;;;;;;36.63;23.13;;;6.00;99.90;;;;;;4993487;28;20208;-63
2021/11/11 00:32:44;;;;;;;32.23;21.80;;;5.90;99.90;;;;;;5004069;28;20240;-63
2021/11/11 00:35:15;;;;;;;32.27;21.43;;;5.90;99.90;;;;;;5019245;28;20699;-63
2021/11/11 00:37:42;;;;;;;33.80;20.80;;;6.00;99.90;;;;;;4999696;28;20204;-62
2021/11/11 00:40:11;;;;;;;36.10;22.00;;;5.90;99.90;;;;;;4993407;28;20244;-63
2021/11/11 00:42:39;;;;;;;33.07;21.60;;;5.90;99.90;;;;;;4993443;28;20326;-64
2021/11/11 00:45:07;;;;;;;34.90;21.73;;;5.90;99.90;;;;;;4992906;28;20200;-63
2021/11/11 00:47:34;;;;;;;37.60;20.13;;;5.90;99.90;;;;;;5010602;28;20202;-62
2021/11/11 00:50:01;;;;;;;36.00;22.27;;;5.80;99.90;;;;;;5012333;28;20783;-63
2021/11/11 00:52:29;;;;;;;34.60;21.53;;;5.90;99.90;;;;;;5013035;28;20482;-64
2021/11/11 00:54:56;;;;;;;33.83;20.97;;;5.80;99.90;;;;;;4998248;28;20270;-62
2021/11/11 00:57:23;;;;;;;34.10;21.80;;;5.80;99.90;;;;;;5020491;28;20266;-63
2021/11/11 00:59:51;;;;;;;36.93;22.60;;;5.80;99.90;;;;;;5009382;28;20207;-63
2021/11/11 01:02:18;;;;;;;38.63;22.03;;;5.80;99.90;;;;;;5011804;28;20200;-63
2021/11/11 01:04:45;;;;;;;33.90;21.07;;;5.80;99.90;;;;;;5015391;28;20648;-62
2021/11/11 01:07:12;;;;;;;35.73;21.13;;;5.80;99.90;;;;;;5015313;28;20206;-63
2021/11/11 01:09:39;;;;;;;34.50;20.17;;;5.80;99.90;;;;;;5005526;28;20691;-62
2021/11/11 01:12:08;;;;;;;35.60;22.03;;;5.80;99.90;;;;;;5012922;28;20426;-63
2021/11/11 01:14:35;;;;;;;34.47;22.43;;;5.80;99.90;;;;;;4992835;28;20238;-63
2021/11/11 01:17:04;;;;;;;34.20;20.93;;;5.80;99.90;;;;;;5000862;28;20208;-63
2021/11/11 01:19:31;;;;;;;34.27;20.13;;;5.80;99.90;;;;;;4997936;28;20214;-63
2021/11/11 01:21:58;;;;;;;32.23;21.27;;;5.80;99.90;;;;;;4992857;28;20218;-64
2021/11/11 01:24:25;;;;;;;30.73;21.50;;;5.80;99.90;;;;;;4992315;28;20207;-64
2021/11/11 01:26:52;;;;;;;38.23;20.73;;;5.80;99.90;;;;;;5009223;28;20293;-63
2021/11/11 01:29:19;;;;;;;33.70;20.30;;;5.80;99.90;;;;;;5000195;28;20583;-64
2021/11/11 01:31:46;;;;;;;32.40;18.90;;;5.80;99.90;;;;;;4998369;28;20458;-63
2021/11/11 01:34:14;;;;;;;33.50;20.83;;;5.90;99.90;;;;;;5012755;28;20703;-63
2021/11/11 01:36:42;;;;;;;34.80;21.80;;;5.90;99.90;;;;;;5012111;28;20337;-62
2021/11/11 01:39:09;;;;;;;34.10;19.73;;;5.90;99.90;;;;;;4998631;28;20216;-62
2021/11/11 01:41:36;;;;;;;35.77;20.40;;;5.90;99.90;;;;;;5020419;28;20661;-63
2021/11/11 01:44:04;;;;;;;38.30;21.57;;;5.90;99.90;;;;;;4997882;28;20211;-62
2021/11/11 01:46:31;;;;;;;35.83;20.30;;;5.90;99.90;;;;;;5003320;28;20234;-64
2021/11/11 01:48:58;;;;;;;31.77;20.40;;;5.80;99.90;;;;;;5001964;28;20214;-63
2021/11/11 01:51:26;;;;;;;36.10;21.00;;;5.90;99.90;;;;;;5011252;28;20219;-62
2021/11/11 01:53:53;;;;;;;32.23;20.57;;;5.80;99.90;;;;;;5000773;28;20307;-62
2021/11/11 01:56:22;;;;;;;33.33;21.57;;;5.90;99.90;;;;;;4991084;28;20231;-63
2021/11/11 01:58:49;;;;;;;32.20;19.80;;;6.20;99.90;;;;;;5002053;28;20239;-63
2021/11/11 02:01:16;;;;;;;29.90;19.27;;;5.80;99.90;;;;;;5005203;28;20736;-63
2021/11/11 02:03:44;;;;;;;30.57;19.67;;;5.80;99.90;;;;;;4996161;28;20210;-63
2021/11/11 02:06:11;;;;;;;34.17;20.90;;;5.90;99.90;;;;;;5006163;28;20204;-62
2021/11/11 02:08:39;;;;;;;33.50;20.30;;;5.80;99.90;;;;;;5010786;28;20211;-63
2021/11/11 02:11:07;;;;;;;29.67;19.87;;;5.80;99.90;;;;;;5010827;28;20479;-63
2021/11/11 02:13:34;;;;;;;32.07;20.50;;;5.80;99.90;;;;;;4993246;28;20280;-63
2021/11/11 02:16:01;;;;;;;36.07;19.40;;;5.80;99.90;;;;;;4999630;28;20696;-63
2021/11/11 02:18:28;;;;;;;31.57;19.97;;;5.90;99.90;;;;;;5007432;28;20223;-63
2021/11/11 02:20:56;;;;;;;32.73;20.13;;;5.80;99.90;;;;;;4990385;28;20211;-61
2021/11/11 02:23:24;;;;;;;32.83;19.03;;;5.80;99.90;;;;;;4992015;28;20220;-63
2021/11/11 02:25:51;;;;;;;33.20;20.57;;;5.80;99.90;;;;;;5001285;28;20207;-63
2021/11/11 02:28:19;;;;;;;31.27;19.10;;;5.80;99.90;;;;;;4998227;28;20218;-63
2021/11/11 02:30:49;;;;;;;29.87;19.63;;;5.90;99.90;;;;;;5015602;28;20245;-62
2021/11/11 02:33:18;;;;;;;31.37;18.73;;;5.80;99.90;;;;;;5018872;28;20203;-64
2021/11/11 02:35:46;;;;;;;29.67;19.00;;;5.90;99.90;;;;;;4993408;28;20242;-63
2021/11/11 02:38:14;;;;;;;31.50;18.70;;;5.80;99.90;;;;;;4993956;28;20203;-64
2021/11/11 02:40:42;;;;;;;30.23;20.03;;;5.90;99.90;;;;;;4991869;28;20208;-62
2021/11/11 02:43:10;;;;;;;31.40;18.63;;;5.80;99.90;;;;;;5000930;28;20917;-62
2021/11/11 02:45:38;;;;;;;31.73;18.77;;;5.80;99.90;;;;;;5010618;28;20828;-62
2021/11/11 02:48:07;;;;;;;34.77;19.63;;;5.80;99.90;;;;;;5000908;28;20213;-63
2021/11/11 02:50:35;;;;;;;28.83;19.10;;;5.80;99.90;;;;;;5003524;28;20215;-64
2021/11/11 02:53:03;;;;;;;30.70;18.97;;;5.80;99.90;;;;;;5009223;28;20208;-63
2021/11/11 02:55:32;;;;;;;32.00;20.10;;;5.80;99.90;;;;;;4992662;28;20330;-63
2021/11/11 02:58:00;;;;;;;32.33;19.13;;;5.80;99.90;;;;;;5000718;28;20327;-62
2021/11/11 03:00:30;;;;;;;30.60;19.27;;;5.80;99.90;;;;;;5005709;28;20212;-64
2021/11/11 03:02:58;;;;;;;30.73;18.63;;;5.80;99.90;;;;;;4994123;28;20211;-63
2021/11/11 03:05:26;;;;;;;30.00;19.40;;;5.80;99.90;;;;;;4993264;28;20610;-63
2021/11/11 03:07:54;;;;;;;28.27;19.43;;;5.80;99.90;;;;;;5009565;28;20672;-62
2021/11/11 03:10:24;;;;;;;29.03;18.87;;;5.80;99.90;;;;;;5006283;28;20212;-64
2021/11/11 03:12:55;;;;;;;29.33;18.53;;;5.80;99.90;;;;;;4994984;28;20208;-63
2021/11/11 03:15:25;;;;;;;28.90;19.33;;;5.80;99.90;;;;;;5009496;28;20216;-64
2021/11/11 03:17:52;;;;;;;30.20;19.37;;;5.80;99.90;;;;;;4995743;28;20712;-63
2021/11/11 03:20:20;;;;;;;29.17;19.17;;;5.80;99.90;;;;;;4995995;28;20710;-63
2021/11/11 03:22:49;;;;;;;29.20;18.90;;;5.80;99.90;;;;;;4996427;28;20662;-63
2021/11/11 03:25:17;;;;;;;30.93;18.53;;;5.80;99.90;;;;;;5003698;28;20207;-63
2021/11/11 03:27:45;;;;;;;27.33;17.70;;;5.80;99.90;;;;;;5007589;28;20294;-64
2021/11/11 03:30:16;;;;;;;29.33;18.43;;;5.80;99.90;;;;;;4996841;28;20204;-64
2021/11/11 03:32:44;;;;;;;27.97;18.47;;;5.80;99.90;;;;;;5000332;28;20305;-63
2021/11/11 03:35:12;;;;;;;32.17;19.20;;;5.80;99.90;;;;;;5007818;28;20227;-63
2021/11/11 03:37:39;;;;;;;29.10;18.93;;;5.80;99.90;;;;;;5006869;28;20208;-63
2021/11/11 03:40:09;;;;;;;27.77;19.30;;;5.80;99.90;;;;;;5014495;28;20215;-63
2021/11/11 03:42:36;;;;;;;30.10;18.60;;;5.80;99.90;;;;;;5000965;28;20203;-62
2021/11/11 03:45:05;;;;;;;28.40;18.10;;;5.80;99.90;;;;;;5005722;28;20208;-63
2021/11/11 03:47:33;;;;;;;28.00;18.53;;;5.80;99.90;;;;;;4998584;28;20274;-62
2021/11/11 03:50:00;;;;;;;26.13;17.87;;;5.80;99.90;;;;;;5007128;28;20207;-63
2021/11/11 03:52:27;;;;;;;26.03;17.90;;;5.80;99.90;;;;;;5014803;28;20229;-64
2021/11/11 03:54:54;;;;;;;27.70;17.30;;;5.80;99.90;;;;;;5001924;28;20223;-62
2021/11/11 03:57:21;;;;;;;30.97;17.67;;;5.80;99.90;;;;;;5014181;28;20251;-63
2021/11/11 03:59:48;;;;;;;28.33;17.63;;;5.80;99.90;;;;;;5014184;28;20604;-63
2021/11/11 04:02:15;;;;;;;26.90;17.33;;;5.80;99.90;;;;;;5008417;28;20519;-63
2021/11/11 04:04:43;;;;;;;28.77;17.27;;;5.80;99.90;;;;;;5009670;28;20217;-63
2021/11/11 04:07:10;;;;;;;24.97;16.63;;;5.90;99.90;;;;;;5006524;28;20680;-61
2021/11/11 04:09:37;;;;;;;28.80;18.03;;;5.80;99.90;;;;;;5006548;28;20575;-62
2021/11/11 04:12:04;;;;;;;28.13;17.00;;;5.80;99.90;;;;;;5000486;28;20211;-63
2021/11/11 04:14:32;;;;;;;32.60;18.70;;;5.80;99.90;;;;;;5001313;28;20216;-62
2021/11/11 04:16:59;;;;;;;28.03;18.00;;;5.80;99.90;;;;;;5006073;28;20250;-62
2021/11/11 04:19:26;;;;;;;25.27;17.37;;;5.80;99.90;;;;;;4994167;28;20208;-63
2021/11/11 04:21:54;;;;;;;27.33;17.63;;;5.80;99.90;;;;;;4993977;28;20214;-64
2021/11/11 04:24:21;;;;;;;27.07;18.23;;;5.80;99.90;;;;;;5008284;28;20664;-63
2021/11/11 04:26:53;;;;;;;28.67;17.67;;;5.70;99.90;;;;;;5018448;28;20207;-63
2021/11/11 04:29:22;;;;;;;26.90;17.27;;;5.70;99.90;;;;;;4994804;28;20204;-64
2021/11/11 04:31:53;;;;;;;28.47;18.03;;;5.70;99.90;;;;;;5008486;28;20258;-64
2021/11/11 04:34:21;;;;;;;29.27;17.70;;;5.60;99.90;;;;;;4994660;28;20200;-64
2021/11/11 04:59:46;;;;;;;27.47;17.23;;;5.50;99.90;;;;;;5007863;28;20210;-63
2021/11/11 05:02:41;;;;;;;28.20;18.33;;;5.50;99.90;;;;;;5013087;28;20207;-64
2021/11/11 05:05:09;;;;;;;29.53;17.60;;;5.50;99.90;;;;;;4995528;28;20679;-64
2021/11/11 05:07:36;;;;;;;28.63;17.43;;;5.50;99.90;;;;;;5011239;28;20245;-62
2021/11/11 05:10:04;;;;;;;25.70;16.77;;;5.40;99.90;;;;;;5007593;28;20255;-63
2021/11/11 05:12:32;;;;;;;26.60;16.23;;;5.40;99.90;;;;;;5003910;28;20216;-63
2021/11/11 05:14:59;;;;;;;26.87;16.87;;;5.40;99.90;;;;;;4995742;28;20238;-62
2021/11/11 05:17:26;;;;;;;28.27;18.67;;;5.40;99.90;;;;;;5009549;28;20218;-62
2021/11/11 05:19:53;;;;;;;26.83;17.70;;;5.40;99.90;;;;;;5008529;28;20607;-63
2021/11/11 05:22:21;;;;;;;29.13;17.97;;;5.50;99.90;;;;;;4993599;28;20238;-63
2021/11/11 05:24:48;;;;;;;30.07;18.00;;;5.40;99.90;;;;;;5013780;28;20804;-63
2021/11/11 05:27:16;;;;;;;32.03;17.77;;;5.40;99.90;;;;;;5010582;28;20439;-63
2021/11/11 05:29:45;;;;;;;25.27;17.13;;;5.40;99.90;;;;;;5002150;28;20318;-62
2021/11/11 05:32:12;;;;;;;30.43;17.43;;;5.40;99.90;;;;;;5008401;28;20244;-63
2021/11/11 05:34:39;;;;;;;31.10;17.23;;;5.40;99.90;;;;;;4992936;28;20303;-64
2021/11/11 05:37:06;;;;;;;25.20;16.27;;;5.40;99.90;;;;;;5011509;28;20602;-62
2021/11/11 05:39:34;;;;;;;28.70;17.93;;;5.40;99.90;;;;;;4992290;28;20204;-62
2021/11/11 05:42:01;;;;;;;30.07;17.30;;;5.40;99.90;;;;;;5019571;28;20206;-63
2021/11/11 05:44:28;;;;;;;29.00;17.87;;;5.40;99.90;;;;;;5012461;28;20226;-64
2021/11/11 05:46:56;;;;;;;27.80;17.50;;;5.40;99.90;;;;;;5013646;28;20198;-63
2021/11/11 05:49:23;;;;;;;29.07;17.27;;;5.40;99.90;;;;;;5009974;28;20207;-63
2021/11/11 05:51:50;;;;;;;25.70;16.43;;;5.40;99.90;;;;;;4993672;28;20219;-65
2021/11/11 05:54:17;;;;;;;27.03;17.60;;;5.40;99.90;;;;;;5018213;28;20203;-63
2021/11/11 05:56:44;;;;;;;30.77;16.23;;;5.40;99.90;;;;;;5002287;28;20709;-63
2021/11/11 05:59:11;;;;;;;29.47;17.73;;;5.40;99.90;;;;;;5021659;28;20215;-62
2021/11/11 06:01:38;;;;;;;29.37;17.43;;;5.40;99.90;;;;;;5009094;28;20199;-63
2021/11/11 06:04:06;;;;;;;25.70;17.13;;;5.40;99.90;;;;;;5000843;28;20206;-62
2021/11/11 06:06:33;;;;;;;28.43;16.93;;;5.40;99.90;;;;;;5006345;28;20286;-62
2021/11/11 06:09:00;;;;;;;25.43;17.50;;;5.40;99.90;;;;;;4992052;28;20254;-62
2021/11/11 06:11:27;;;;;;;27.70;17.50;;;5.40;99.90;;;;;;5006556;28;20215;-62
2021/11/11 06:13:54;;;;;;;26.77;16.17;;;5.40;99.90;;;;;;4999532;28;20200;-64
2021/11/11 06:16:22;;;;;;;25.07;16.73;;;5.40;99.90;;;;;;5012826;28;20223;-63
2021/11/11 06:18:50;;;;;;;28.90;18.03;;;5.50;99.90;;;;;;5007067;28;20223;-63
2021/11/11 06:21:22;;;;;;;25.23;16.50;;;5.50;99.90;;;;;;5002791;28;20544;-65
2021/11/11 06:23:50;;;;;;;24.57;17.00;;;5.50;99.90;;;;;;5002195;28;20562;-63
2021/11/11 06:26:19;;;;;;;29.30;17.07;;;5.50;99.90;;;;;;5026797;28;20207;-64
2021/11/11 06:28:46;;;;;;;23.60;16.20;;;5.50;99.90;;;;;;5011901;28;20203;-63
2021/11/11 06:31:13;;;;;;;29.03;17.07;;;5.50;99.90;;;;;;5018116;28;20264;-63
2021/11/11 06:33:40;;;;;;;28.97;17.47;;;5.70;99.90;;;;;;5002455;28;20214;-64
2021/11/11 06:36:07;;;;;;;26.47;17.57;;;5.60;99.90;;;;;;5001877;28;20223;-64
2021/11/11 06:38:36;;;;;;;26.57;17.67;;;5.60;99.90;;;;;;5012946;28;20213;-64
2021/11/11 06:41:04;;;;;;;25.03;16.53;;;5.60;99.90;;;;;;5011003;28;20222;-66
2021/11/11 06:43:31;;;;;;;24.23;15.27;;;5.70;99.90;;;;;;5015763;28;20211;-67
2021/11/11 06:45:58;;;;;;;25.73;17.20;;;5.70;99.90;;;;;;5011775;28;20298;-67
2021/11/11 06:48:25;;;;;;;25.20;17.00;;;5.80;99.90;;;;;;5018654;28;20231;-69
2021/11/11 06:50:52;;;;;;;30.70;17.63;;;5.80;99.90;;;;;;5015625;28;20230;-68
2021/11/11 06:53:20;;;;;;;25.47;16.70;;;5.80;99.90;;;;;;5014976;28;20568;-68
2021/11/11 06:55:49;;;;;;;25.10;16.53;;;5.90;99.90;;;;;;5017055;28;20308;-67
2021/11/11 06:58:20;;;;;;;27.77;16.90;;;5.90;99.90;;;;;;5018394;28;20211;-68
2021/11/11 07:00:47;;;;;;;26.00;17.27;;;6.00;99.90;;;;;;5016573;28;20652;-68
2021/11/11 07:03:14;;;;;;;27.13;16.80;;;6.00;99.90;;;;;;5016533;28;20215;-69
2021/11/11 07:05:41;;;;;;;26.43;17.50;;;6.30;99.90;;;;;;5009158;28;20207;-68
2021/11/11 07:08:10;;;;;;;26.50;16.97;;;6.40;99.90;;;;;;5002373;28;20286;-68
2021/11/11 07:10:38;;;;;;;29.13;15.73;;;6.50;99.90;;;;;;5014517;28;20261;-68
2021/11/11 07:13:07;;;;;;;25.13;16.73;;;6.60;99.90;;;;;;5019268;28;20220;-67
2021/11/11 07:15:35;;;;;;;22.27;15.27;;;6.80;99.90;;;;;;5021896;28;20681;-68
2021/11/11 07:18:02;;;;;;;24.67;16.53;;;6.90;99.90;;;;;;5018258;28;20212;-66
2021/11/11 07:20:30;;;;;;;28.83;17.53;;;7.00;99.90;;;;;;5015382;28;20207;-67
2021/11/11 07:23:00;;;;;;;26.83;16.20;;;7.10;99.90;;;;;;5015924;28;20207;-67
2021/11/11 07:25:27;;;;;;;25.67;16.23;;;7.20;99.90;;;;;;5022249;28;20215;-66
2021/11/11 07:27:55;;;;;;;26.07;16.20;;;7.30;99.90;;;;;;5023204;28;20276;-66
2021/11/11 07:30:24;;;;;;;24.20;16.40;;;7.40;99.90;;;;;;5021936;28;20298;-67
2021/11/11 07:32:52;;;;;;;26.40;15.27;;;7.40;99.90;;;;;;5007814;28;20684;-65
2021/11/11 07:35:19;;;;;;;28.60;18.03;;;7.50;99.90;;;;;;5014151;28;20216;-67
2021/11/11 07:37:49;;;;;;;23.77;16.23;;;7.50;99.90;;;;;;5014621;28;20207;-68
2021/11/11 07:40:19;;;;;;;23.27;16.10;;;7.70;99.90;;;;;;5020823;28;20213;-66
2021/11/11 07:42:47;;;;;;;26.23;16.97;;;7.70;99.90;;;;;;5016114;28;20211;-66
2021/11/11 07:45:18;;;;;;;25.80;15.40;;;7.80;99.90;;;;;;5015179;28;20314;-66
2021/11/11 07:47:46;;;;;;;25.70;15.63;;;8.00;99.90;;;;;;5010356;28;20199;-68
2021/11/11 07:50:13;;;;;;;21.93;15.53;;;8.20;99.90;;;;;;5014877;28;20211;-66
2021/11/11 07:52:40;;;;;;;21.17;15.07;;;8.30;99.90;;;;;;5023665;28;20683;-66
2021/11/11 07:55:08;;;;;;;23.23;15.10;;;8.40;99.90;;;;;;5019996;28;20211;-66
2021/11/11 07:57:35;;;;;;;25.30;15.63;;;8.50;99.90;;;;;;5015893;28;20227;-68
2021/11/11 08:00:05;;;;;;;23.33;15.27;;;8.60;99.90;;;;;;5016591;28;20306;-68
2021/11/11 08:02:31;;;;;;;23.80;15.43;;;8.70;99.90;;;;;;5017534;28;20225;-68
2021/11/11 08:05:00;;;;;;;22.83;15.53;;;8.70;99.90;;;;;;5016021;28;20237;-65
2021/11/11 08:07:27;;;;;;;24.03;16.03;;;8.80;99.90;;;;;;5029106;28;20289;-66
2021/11/11 08:09:54;;;;;;;23.80;15.67;;;8.90;99.90;;;;;;5019851;28;20704;-66
2021/11/11 08:12:21;;;;;;;20.63;14.90;;;9.00;99.90;;;;;;5023043;28;20257;-67
2021/11/11 08:14:49;;;;;;;25.37;16.73;;;9.10;99.90;;;;;;5025908;28;20243;-65
2021/11/11 08:17:18;;;;;;;22.73;15.60;;;9.20;99.90;;;;;;5021968;28;20226;-65
2021/11/11 08:19:45;;;;;;;21.83;15.53;;;9.40;99.90;;;;;;5010916;28;20218;-67
2021/11/11 08:22:14;;;;;;;23.87;16.83;;;9.50;99.90;;;;;;5013614;28;20733;-65
2021/11/11 08:24:44;;;;;;;20.73;15.70;;;9.60;99.90;;;;;;5007308;28;20214;-66
2021/11/11 08:27:13;;;;;;;24.00;15.27;;;9.70;99.90;;;;;;5007298;28;20198;-67
2021/11/11 08:29:42;;;;;;;23.63;15.93;;;9.80;99.90;;;;;;5011051;28;20231;-66
2021/11/11 08:32:10;;;;;;;23.50;16.10;;;10.00;99.90;;;;;;5013800;28;20235;-66
2021/11/11 08:34:37;;;;;;;19.93;15.10;;;10.20;99.90;;;;;;5016250;28;20217;-66
2021/11/11 08:37:05;;;;;;;24.50;15.70;;;10.60;99.90;;;;;;5012977;28;20232;-67
2021/11/11 08:39:35;;;;;;;24.07;15.97;;;11.40;99.90;;;;;;5017260;28;20253;-66
2021/11/11 08:42:02;;;;;;;19.27;15.10;;;13.00;99.90;;;;;;5029275;28;20217;-67
2021/11/11 08:44:29;;;;;;;22.47;15.50;;;15.00;99.90;;;;;;5002092;28;20207;-65
2021/11/11 08:46:56;;;;;;;21.37;14.13;;;16.90;93.90;;;;;;5013997;28;20286;-68
2021/11/11 08:49:23;;;;;;;19.17;13.90;;;18.30;86.10;;;;;;5012761;28;20219;-66
2021/11/11 08:51:52;;;;;;;18.90;15.40;;;19.60;72.40;;;;;;5008061;28;20213;-67
2021/11/11 08:54:19;;;;;;;17.67;14.30;;;20.70;66.20;;;;;;5027369;28;20199;-67
2021/11/11 08:56:49;;;;;;;20.77;15.90;;;21.80;59.40;;;;;;5013663;28;20219;-71
2021/11/11 08:59:17;;;;;;;20.92;14.88;;;22.70;55.50;;;;;;5004928;28;20283;-68
2021/11/11 09:01:45;;;;;;;19.30;15.73;;;23.50;52.40;;;;;;5010747;28;20203;-65
2021/11/11 09:04:13;;;;;;;18.00;15.05;;;24.00;50.80;;;;;;5014889;28;20219;-66
2021/11/11 09:06:42;;;;;;;18.00;15.10;;;24.70;48.50;;;;;;5005224;28;20262;-66
2021/11/11 09:09:09;;;;;;;18.42;15.43;;;25.40;46.90;;;;;;5006953;28;20214;-67
2021/11/11 09:11:37;;;;;;;19.65;15.75;;;26.00;45.80;;;;;;5014034;28;20227;-66
2021/11/11 09:14:06;;;;;;;19.60;15.63;;;26.90;44.00;;;;;;5007720;28;20298;-68
2021/11/11 09:16:33;;;;;;;18.42;15.70;;;27.60;42.30;;;;;;5011824;28;20227;-66
2021/11/11 09:19:00;;;;;;;19.75;17.02;;;28.20;41.10;;;;;;5002174;28;20207;-67
2021/11/11 09:21:28;;;;;;;19.00;16.70;;;28.60;40.00;;;;;;5022804;28;20225;-67
2021/11/11 09:23:55;;;;;;;17.05;14.98;;;28.90;39.10;;;;;;5020605;28;20306;-65
2021/11/11 09:26:22;;;;;;;20.65;16.67;;;29.30;38.10;;;;;;5014934;28;20222;-66
2021/11/11 09:28:49;;;;;;;20.90;16.80;;;29.60;37.90;;;;;;5012421;28;20624;-62
2021/11/11 09:31:18;;;;;;;18.95;15.73;;;30.00;37.00;;;;;;5013644;28;20233;-64
2021/11/11 09:33:47;;;;;;;19.15;16.83;;;30.30;36.30;;;;;;5012326;28;20231;-64
2021/11/11 09:36:16;;;;;;;18.02;15.20;;;30.60;35.90;;;;;;5018063;28;20644;-64
2021/11/11 09:38:45;;;;;;;18.65;16.48;;;30.90;34.90;;;;;;5015668;28;20636;-67
2021/11/11 09:41:12;;;;;;;19.25;16.58;;;31.20;34.60;;;;;;5013598;28;20207;-65
2021/11/11 09:43:41;;;;;;;18.90;16.88;;;31.50;34.30;;;;;;5008631;28;20203;-68
2021/11/11 09:46:10;;;;;;;18.90;16.00;;;32.00;34.00;;;;;;5011736;28;20676;-66
2021/11/11 09:48:39;;;;;;;19.38;16.63;;;32.60;33.10;;;;;;5016150;28;20281;-69
2021/11/11 09:51:09;;;;;;;18.15;15.98;;;33.00;32.30;;;;;;5010471;28;20213;-68
2021/11/11 09:53:44;;;;;;;18.50;16.60;;;33.10;32.40;;;;;;5017065;28;20211;-66
2021/11/11 09:58:55;;;;;;;20.63;16.60;;;33.50;31.30;;;;;;5018325;28;20198;-66
2021/11/11 10:01:24;;;;;;;19.38;17.33;;;33.80;31.00;;;;;;5015023;28;20718;-67
2021/11/11 10:03:54;;;;;;;19.05;17.05;;;33.90;30.50;;;;;;5011766;28;20195;-66
2021/11/11 10:06:23;;;;;;;18.77;16.17;;;34.20;30.30;;;;;;5012609;28;20210;-66
2021/11/11 10:08:52;;;;;;;18.63;16.70;;;34.30;30.10;;;;;;5008704;28;20211;-66
2021/11/11 10:11:29;;;;;;;17.45;15.65;;;34.50;30.00;;;;;;5018594;28;20720;-66
2021/11/11 10:13:58;;;;;;;18.33;16.42;;;34.50;29.80;;;;;;5021193;28;20203;-67
2021/11/11 10:16:25;;;;;;;18.80;16.85;;;34.70;29.60;;;;;;5009401;28;20211;-66
2021/11/11 10:18:55;;;;;;;18.55;16.17;;;34.70;29.00;;;;;;5007349;28;20289;-66
2021/11/11 10:21:28;;;;;;;17.67;15.95;;;34.70;29.50;;;;;;5005635;28;20211;-66
2021/11/11 10:23:57;;;;;;;16.95;15.25;;;34.70;29.40;;;;;;5012049;28;20207;-66
2021/11/11 10:26:30;;;;;;;18.10;16.20;;;34.80;29.50;;;;;;5013275;28;20684;-66
2021/11/11 10:28:56;;;;;;;17.67;15.98;;;34.70;29.40;;;;;;5006299;28;20230;-66
2021/11/11 10:31:23;;;;;;;19.02;16.38;;;34.80;29.30;;;;;;5016671;28;20260;-66
2021/11/11 10:34:12;;;;;;;18.65;16.75;;;35.00;29.20;;;;;;5010235;28;20219;-68
2021/11/11 10:36:44;;;;;;;18.90;16.48;;;35.00;28.90;;;;;;5014489;28;20226;-67
2021/11/11 10:39:14;;;;;;;19.38;17.33;;;34.90;29.10;;;;;;5025727;28;20582;-66
2021/11/11 10:41:42;;;;;;;18.92;17.02;;;34.70;29.00;;;;;;5015890;28;20507;-68
2021/11/11 10:44:21;;;;;;;18.77;16.35;;;34.60;29.20;;;;;;5009950;28;20207;-67
2021/11/11 10:46:52;;;;;;;20.33;17.17;;;34.60;29.30;;;;;;5007419;28;20207;-65
2021/11/11 10:49:26;;;;;;;17.52;15.68;;;34.60;29.20;;;;;;5009036;28;20616;-67
2021/11/11 10:51:54;;;;;;;19.20;17.17;;;34.80;29.20;;;;;;5007706;28;20203;-68
2021/11/11 10:54:21;;;;;;;18.80;16.73;;;35.10;28.90;;;;;;5005770;28;20779;-67
2021/11/11 10:56:50;;;;;;;18.67;16.88;;;35.10;28.60;;;;;;5006640;28;20231;-67
2021/11/11 10:59:20;;;;;;;19.42;17.52;;;35.40;28.80;;;;;;5009116;28;20221;-68
2021/11/11 11:02:02;;;;;;;19.23;17.17;;;35.50;28.40;;;;;;5013109;28;20206;-66
2021/11/11 11:04:32;;;;;;;18.50;16.52;;;35.40;28.50;;;;;;5020341;28;20306;-67
2021/11/11 11:07:13;;;;;;;19.88;17.77;;;35.30;28.70;;;;;;5016157;28;20569;-68
2021/11/11 11:09:41;;;;;;;20.25;18.00;;;34.90;28.50;;;;;;5004378;28;20639;-67
2021/11/11 11:12:27;;;;;;;19.42;17.33;;;34.60;29.00;;;;;;5015140;28;20204;-68
2021/11/11 11:14:54;;;;;;;19.60;17.30;;;34.70;29.20;;;;;;5011728;28;20208;-69
2021/11/11 11:17:21;;;;;;;19.17;17.20;;;34.70;28.60;;;;;;5016028;28;20231;-69
2021/11/11 11:19:50;;;;;;;19.92;17.85;;;34.60;28.80;;;;;;5015981;28;20235;-67
2021/11/11 11:22:24;;;;;;;20.35;17.02;;;34.10;29.10;;;;;;5023589;28;20282;-68
2021/11/11 11:25:02;;;;;;;20.40;16.80;;;34.00;29.30;;;;;;5014602;28;20218;-68
2021/11/11 11:27:34;;;;;;;19.73;17.73;;;34.00;29.20;;;;;;5012342;28;20199;-67
2021/11/11 11:30:10;;;;;;;19.30;17.33;;;34.00;29.30;;;;;;5023128;28;20294;-64
2021/11/11 11:32:41;;;;;;;19.75;17.77;;;34.30;29.40;;;;;;5018437;28;20250;-64
2021/11/11 11:35:11;;;;;;;22.75;19.90;;;34.50;29.20;;;;;;5019482;28;20260;-64
2021/11/11 11:37:39;;;;;;;21.50;18.70;;;34.70;28.70;;;;;;5018569;28;20277;-63
2021/11/11 11:40:09;;;;;;;19.98;17.92;;;34.30;29.10;;;;;;5026010;28;20207;-63
2021/11/11 11:42:40;;;;;;;20.48;18.33;;;33.50;28.90;;;;;;5019052;28;20254;-64
2021/11/11 11:45:09;;;;;;;21.35;19.08;;;31.90;29.50;;;;;;5014402;28;20564;-65
2021/11/11 11:47:40;;;;;;;22.70;19.15;;;29.90;31.20;;;;;;5015863;28;20206;-64
2021/11/11 11:50:12;;;;;;;25.77;20.55;;;27.90;33.20;;;;;;5025827;28;20202;-63
2021/11/11 11:52:44;;;;;;;22.23;19.35;;;25.90;35.90;;;;;;5007358;28;20207;-64
2021/11/11 11:55:14;;;;;;;21.58;19.10;;;24.20;38.00;;;;;;5024608;28;20216;-64
2021/11/11 11:57:53;;;;;;;22.95;18.83;;;22.90;40.20;;;;;;5016998;28;20239;-64
2021/11/11 12:00:39;;;;;;;22.05;18.58;;;21.60;41.90;;;;;;5013011;28;20209;-63
2021/11/11 12:03:25;;;;;;;23.30;18.98;;;20.60;43.60;;;;;;5006873;28;20239;-63
2021/11/11 12:06:21;;;;;;;24.17;18.52;;;19.60;45.10;;;;;;5002150;28;20206;-63
2021/11/11 12:09:05;;;;;;;25.48;18.55;;;18.90;46.80;;;;;;5003098;28;20204;-65
2021/11/11 12:11:54;;;;;;;25.55;19.48;;;18.00;48.10;;;;;;4999301;28;20203;-63
2021/11/11 12:14:26;;;;;;;24.90;19.03;;;17.40;49.70;;;;;;5004260;28;20288;-64
2021/11/11 12:29:05;;;;;;;29.10;18.90;;;15.00;55.80;;;;;;4999875;28;20199;-64
2021/11/11 12:40:00;;;;;;;24.77;18.60;;;13.80;60.30;;;;;;5012216;28;20699;-65
2021/11/11 12:42:33;;;;;;;25.90;19.20;;;13.60;61.00;;;;;;5020799;28;20310;-65
2021/11/11 12:45:15;;;;;;;25.20;19.23;;;13.50;61.70;;;;;;5011334;28;20652;-64
2021/11/11 12:47:45;;;;;;;26.37;18.50;;;13.30;62.50;;;;;;5011045;28;20199;-64
2021/11/11 12:50:27;;;;;;;28.53;19.90;;;13.10;63.20;;;;;;5010335;28;20194;-64
2021/11/11 12:53:27;;;;;;;26.07;20.30;;;12.90;64.30;;;;;;5006210;28;20223;-66
2021/11/11 12:56:28;;;;;;;26.20;20.03;;;12.70;65.50;;;;;;5005448;28;20203;-64
2021/11/11 12:59:09;;;;;;;29.73;20.30;;;12.60;66.60;;;;;;5004613;28;20227;-63
2021/11/11 13:01:48;;;;;;;29.90;20.10;;;12.50;66.90;;;;;;5005562;28;20207;-63
2021/11/11 13:04:17;;;;;;;25.43;19.90;;;12.40;67.70;;;;;;5003455;28;20234;-63
2021/11/11 13:06:47;;;;;;;29.50;19.93;;;12.30;68.50;;;;;;5003264;28;20214;-65
2021/11/11 13:09:31;;;;;;;26.37;19.73;;;12.20;69.30;;;;;;5011697;28;20235;-64
2021/11/11 13:12:12;;;;;;;33.03;21.57;;;12.20;70.30;;;;;;5009855;28;20548;-64
2021/11/11 13:14:56;;;;;;;28.13;21.70;;;12.10;71.00;;;;;;5009833;28;20199;-64
2021/11/11 13:17:24;;;;;;;27.60;20.97;;;11.90;71.70;;;;;;5008437;28;20219;-65
2021/11/11 13:19:56;;;;;;;29.63;20.47;;;11.90;72.90;;;;;;5004139;28;20301;-63
2021/11/11 13:22:40;;;;;;;31.17;20.73;;;11.80;73.80;;;;;;5010837;28;20256;-63
2021/11/11 13:25:21;;;;;;;33.00;21.53;;;11.70;74.90;;;;;;5014892;28;20199;-69
2021/11/11 13:28:27;;;;;;;30.40;21.03;;;11.70;76.00;;;;;;5018730;28;20283;-68
2021/11/11 15:15:20;;;;;;;31.37;21.90;;;9.40;99.90;;;;;;5020162;28;20307;-65